Time;durP1;ratioP1;P1;durP2;ratioP2;P2;SDS_P1;SDS_P2;PMS_P1;PMS_P2;Temp;Humidity;BMP_temperature;BMP_pressure;BME280_temperature;BME280_humidity;BME280_pressure;Samples;Min_cycle;Max_cycle;Signal;HPM_P1;HPM_P2
2022/09/25 00:01:26;;;;;;;1.65;0.50;;;10.40;99.90;;;;;;6261819;22;20022;-95
2022/09/25 00:03:52;;;;;;;2.03;0.57;;;10.30;99.90;;;;;;6271859;22;20019;-93
2022/09/25 00:06:21;;;;;;;2.50;0.67;;;10.30;99.90;;;;;;6257447;22;20510;-96
2022/09/25 00:08:47;;;;;;;1.77;0.70;;;10.30;99.90;;;;;;6226948;23;20834;-94
2022/09/25 00:11:16;;;;;;;1.95;0.40;;;10.30;99.90;;;;;;6132302;23;20024;-96
2022/09/25 00:13:43;;;;;;;1.00;0.40;;;10.30;99.90;;;;;;6131795;23;20021;-93
2022/09/25 00:16:11;;;;;;;0.95;0.50;;;10.30;99.90;;;;;;6156851;23;20017;-94
2022/09/25 00:21:21;;;;;;;1.90;0.40;;;10.30;99.90;;;;;;6135934;23;20022;-91
2022/09/25 00:23:47;;;;;;;2.05;0.60;;;10.20;99.90;;;;;;6108124;23;20017;-91
2022/09/25 00:26:15;;;;;;;2.50;0.77;;;10.20;99.90;;;;;;6156419;23;20019;-94
2022/09/25 00:28:42;;;;;;;1.58;0.50;;;10.20;99.90;;;;;;6132328;23;20272;-89
2022/09/25 00:31:10;;;;;;;1.42;0.57;;;10.20;99.90;;;;;;6155701;22;20017;-89
2022/09/25 00:33:36;;;;;;;1.17;0.40;;;10.10;99.90;;;;;;6132162;23;20096;-94
2022/09/25 00:36:05;;;;;;;1.23;0.40;;;10.10;99.90;;;;;;6132172;23;20032;-92
2022/09/25 00:38:32;;;;;;;2.53;0.40;;;10.10;99.90;;;;;;6131440;23;20450;-95
2022/09/25 00:40:58;;;;;;;2.72;0.60;;;10.10;99.90;;;;;;6261018;22;20025;-95
2022/09/25 00:43:59;;;;;;;2.33;0.60;;;10.10;99.90;;;;;;6131989;23;20020;-89
2022/09/25 00:46:35;;;;;;;1.58;0.30;;;10.10;99.90;;;;;;6130932;23;20013;-91
2022/09/25 00:49:18;;;;;;;2.92;0.40;;;10.10;99.90;;;;;;6131471;23;20028;-86
2022/09/25 00:52:13;;;;;;;0.63;0.40;;;10.10;99.90;;;;;;6134309;23;20021;-95
2022/09/25 00:54:54;;;;;;;1.80;0.30;;;10.10;99.90;;;;;;6162491;23;20014;-94
2022/09/25 00:57:25;;;;;;;1.55;0.40;;;10.00;99.90;;;;;;6165386;23;20021;-95
2022/09/25 01:00:37;;;;;;;2.85;0.40;;;10.00;99.90;;;;;;6164236;23;20017;-93
2022/09/25 01:03:25;;;;;;;2.70;0.38;;;9.90;99.90;;;;;;6134047;23;20021;-88
2022/09/25 01:05:52;;;;;;;2.85;0.55;;;9.90;99.90;;;;;;6106091;23;20020;-88
2022/09/25 01:08:22;;;;;;;2.42;0.40;;;9.80;99.90;;;;;;6129947;23;20032;-89
2022/09/25 01:10:48;;;;;;;2.05;0.57;;;9.80;99.90;;;;;;6130585;23;20020;-92
2022/09/25 01:13:15;;;;;;;1.17;0.45;;;9.70;99.90;;;;;;6106328;23;20021;-92
2022/09/25 01:15:48;;;;;;;1.45;0.22;;;9.60;99.90;;;;;;6130560;23;20090;-91
2022/09/25 01:18:44;;;;;;;2.10;0.52;;;9.70;99.90;;;;;;6131703;23;20020;-91
2022/09/25 01:21:34;;;;;;;1.10;0.30;;;9.70;99.90;;;;;;6155335;23;20023;-89
2022/09/25 01:24:41;;;;;;;0.68;0.32;;;9.70;99.90;;;;;;6130508;23;20025;-88
2022/09/25 01:27:42;;;;;;;1.20;0.50;;;9.60;99.90;;;;;;6154721;23;20021;-89
2022/09/25 01:30:10;;;;;;;1.02;0.50;;;9.60;99.90;;;;;;6131476;23;20451;-90
2022/09/25 01:32:54;;;;;;;1.67;0.50;;;9.60;99.90;;;;;;6134866;22;20032;-90
2022/09/25 01:35:49;;;;;;;1.63;0.50;;;9.60;99.90;;;;;;6128816;23;20021;-90
2022/09/25 01:38:35;;;;;;;1.65;0.50;;;9.60;99.90;;;;;;6128233;23;20104;-89
2022/09/25 01:41:15;;;;;;;1.40;0.40;;;9.60;99.90;;;;;;6155401;23;20013;-89
2022/09/25 01:43:45;;;;;;;1.80;0.43;;;9.60;99.90;;;;;;6131496;23;20446;-89
2022/09/25 01:46:17;;;;;;;2.30;0.45;;;9.60;99.90;;;;;;6131634;23;20020;-89
2022/09/25 01:48:46;;;;;;;1.10;0.50;;;9.60;99.90;;;;;;6132173;23;20100;-88
2022/09/25 01:51:20;;;;;;;1.42;0.57;;;9.70;99.90;;;;;;6131500;23;20078;-89
2022/09/25 01:54:00;;;;;;;3.40;1.08;;;9.60;99.90;;;;;;6155972;23;20024;-88
2022/09/25 01:56:40;;;;;;;0.60;0.40;;;9.60;99.90;;;;;;6131457;23;20341;-89
2022/09/25 01:59:16;;;;;;;2.35;0.77;;;9.60;99.90;;;;;;6155576;23;20095;-88
2022/09/25 02:01:45;;;;;;;1.35;0.50;;;9.70;99.90;;;;;;6131658;23;20017;-90
2022/09/25 02:04:25;;;;;;;0.90;0.30;;;9.60;99.90;;;;;;6136797;23;20021;-89
2022/09/25 02:06:54;;;;;;;3.08;0.70;;;9.70;99.90;;;;;;6157121;22;20074;-89
2022/09/25 02:09:46;;;;;;;2.13;0.63;;;9.70;99.90;;;;;;6135986;23;20025;-88
2022/09/25 02:12:16;;;;;;;1.08;0.50;;;9.70;99.90;;;;;;6131516;23;20021;-88
2022/09/25 02:14:52;;;;;;;1.58;0.40;;;9.70;99.90;;;;;;6156046;23;20017;-88
2022/09/25 02:20:31;;;;;;;1.25;0.30;;;9.60;99.90;;;;;;6155275;23;20021;-90
2022/09/25 02:23:17;;;;;;;1.15;0.38;;;9.60;99.90;;;;;;6089413;23;20050;-88
2022/09/25 02:26:04;;;;;;;3.95;0.55;;;9.50;99.90;;;;;;6131423;23;20029;-88
2022/09/25 02:28:30;;;;;;;2.10;0.60;;;9.50;99.90;;;;;;6131233;23;20017;-89
2022/09/25 02:30:58;;;;;;;0.73;0.40;;;9.50;99.90;;;;;;6106912;23;20044;-89
2022/09/25 02:33:25;;;;;;;0.70;0.40;;;9.50;99.90;;;;;;6130482;23;20802;-88
2022/09/25 02:35:51;;;;;;;2.75;0.40;;;9.50;99.90;;;;;;6106946;23;20017;-88
2022/09/25 02:38:19;;;;;;;1.08;0.57;;;9.50;99.90;;;;;;6132096;23;20104;-89
2022/09/25 02:40:55;;;;;;;0.70;0.40;;;9.50;99.90;;;;;;6131106;23;20009;-89
2022/09/25 02:43:41;;;;;;;0.80;0.40;;;9.50;99.90;;;;;;6130089;23;20100;-88
2022/09/25 02:46:16;;;;;;;1.63;0.50;;;9.40;99.90;;;;;;6131055;23;20048;-88
2022/09/25 02:48:55;;;;;;;1.38;0.40;;;9.40;99.90;;;;;;6130685;23;20021;-89
2022/09/25 02:51:44;;;;;;;2.42;0.50;;;9.30;99.90;;;;;;6131186;23;20017;-89
2022/09/25 02:54:30;;;;;;;1.35;0.50;;;9.40;99.90;;;;;;6131020;23;20021;-89
2022/09/25 02:57:05;;;;;;;0.50;0.30;;;9.40;99.90;;;;;;6154575;23;20013;-89
2022/09/25 02:59:53;;;;;;;1.52;0.40;;;9.40;99.90;;;;;;6130181;23;20044;-89
2022/09/25 03:02:21;;;;;;;2.00;0.50;;;9.40;99.90;;;;;;6129659;23;20461;-88
2022/09/25 03:04:48;;;;;;;0.35;0.30;;;9.30;99.90;;;;;;6131399;23;20017;-88
2022/09/25 03:07:16;;;;;;;1.92;0.52;;;9.30;99.90;;;;;;6131117;23;20020;-89
2022/09/25 03:09:45;;;;;;;3.58;0.50;;;9.40;99.90;;;;;;6131134;23;20043;-88
2022/09/25 03:12:12;;;;;;;2.00;0.65;;;9.30;99.90;;;;;;6107032;23;20017;-88
2022/09/25 03:14:38;;;;;;;;;;;9.30;99.90;;;;;;6156346;23;20488;-91
2022/09/25 03:17:06;;;;;;;1.70;0.30;;;9.30;99.90;;;;;;6130929;23;19912;-90
2022/09/25 03:19:40;;;;;;;3.67;0.90;;;9.40;99.90;;;;;;6132359;23;20439;-89
2022/09/25 03:22:06;;;;;;;2.03;0.50;;;9.40;99.90;;;;;;6131559;23;20454;-89
2022/09/25 03:24:32;;;;;;;2.10;0.40;;;9.40;99.90;;;;;;6131881;23;20075;-89
2022/09/25 03:26:57;;;;;;;1.20;0.40;;;9.40;99.90;;;;;;6106975;23;20053;-89
2022/09/25 03:29:23;;;;;;;0.87;0.40;;;9.40;99.90;;;;;;6106564;23;20023;-89
2022/09/25 03:31:49;;;;;;;0.73;0.40;;;9.40;99.90;;;;;;6132821;23;20019;-88
2022/09/25 03:34:17;;;;;;;2.10;0.43;;;9.40;99.90;;;;;;6131333;23;20029;-88
2022/09/25 03:36:46;;;;;;;0.70;0.40;;;9.40;99.90;;;;;;6131046;23;20036;-89
2022/09/25 03:39:14;;;;;;;1.65;0.50;;;9.50;99.90;;;;;;6107564;23;20017;-89
2022/09/25 03:41:40;;;;;;;1.60;0.68;;;9.40;99.90;;;;;;6107074;23;20096;-89
2022/09/25 03:44:06;;;;;;;1.33;0.40;;;9.40;99.90;;;;;;6131162;23;20358;-88
2022/09/25 03:46:33;;;;;;;1.63;0.40;;;9.40;99.90;;;;;;6106360;23;20092;-92
2022/09/25 03:49:00;;;;;;;1.15;0.40;;;9.40;99.90;;;;;;6106673;23;20021;-90
2022/09/25 03:51:27;;;;;;;0.50;0.30;;;9.40;99.90;;;;;;6130398;23;20017;-89
2022/09/25 03:53:54;;;;;;;1.02;0.40;;;9.40;99.90;;;;;;6131046;23;20120;-89
2022/09/25 03:56:22;;;;;;;0.85;0.32;;;9.40;99.90;;;;;;6106601;23;20457;-88
2022/09/25 03:58:50;;;;;;;2.60;0.60;;;9.40;99.90;;;;;;6130446;23;20039;-88
2022/09/25 04:01:18;;;;;;;1.38;0.40;;;9.30;99.90;;;;;;6082931;23;20025;-89
2022/09/25 04:03:46;;;;;;;3.90;0.47;;;9.30;99.90;;;;;;6131086;23;20091;-89
2022/09/25 04:06:17;;;;;;;2.53;0.68;;;9.30;99.90;;;;;;6133200;23;20052;-90
2022/09/25 04:08:43;;;;;;;3.30;0.40;;;9.30;99.90;;;;;;6157885;22;20027;-89
2022/09/25 04:11:10;;;;;;;1.60;0.40;;;9.30;99.90;;;;;;6269849;22;20051;-88
2022/09/25 04:13:36;;;;;;;2.42;0.52;;;9.40;99.90;;;;;;6131150;23;20047;-88
2022/09/25 04:16:04;;;;;;;2.05;0.45;;;9.40;99.90;;;;;;6155433;23;20046;-89
2022/09/25 04:18:31;;;;;;;2.80;0.68;;;9.30;99.90;;;;;;6131268;23;20056;-89
2022/09/25 04:21:13;;;;;;;0.88;0.45;;;9.30;99.90;;;;;;6130924;23;20020;-90
2022/09/25 04:23:39;;;;;;;1.15;0.30;;;9.30;99.90;;;;;;6130865;23;20066;-87
2022/09/25 04:26:06;;;;;;;1.25;0.57;;;9.30;99.90;;;;;;6106980;23;20388;-88
2022/09/25 04:28:32;;;;;;;2.10;0.40;;;9.30;99.90;;;;;;6106406;23;20021;-88
2022/09/25 04:30:58;;;;;;;1.95;0.30;;;9.30;99.90;;;;;;6130686;23;20024;-91
2022/09/25 04:36:46;;;;;;;3.35;0.47;;;9.20;99.90;;;;;;6243471;22;20025;-92
2022/09/25 04:40:07;;;;;;;1.00;0.50;;;9.20;99.90;;;;;;6128952;23;20021;-87
2022/09/25 04:42:33;;;;;;;2.38;0.30;;;9.20;99.90;;;;;;6129197;23;20020;-90
2022/09/25 04:44:59;;;;;;;1.13;0.50;;;9.10;99.90;;;;;;6105599;23;20410;-90
2022/09/25 04:47:28;;;;;;;1.73;0.40;;;9.10;99.90;;;;;;6155262;22;20020;-89
2022/09/25 04:49:54;;;;;;;3.53;0.60;;;9.10;99.90;;;;;;6130901;23;20021;-88
2022/09/25 04:52:20;;;;;;;1.40;0.50;;;9.20;99.90;;;;;;6130751;23;20052;-87
2022/09/25 04:54:47;;;;;;;1.00;0.40;;;9.20;99.90;;;;;;6130901;23;20020;-86
2022/09/25 04:57:18;;;;;;;1.08;0.38;;;9.20;99.90;;;;;;6129410;23;20025;-87
2022/09/25 04:59:44;;;;;;;1.77;0.55;;;9.20;99.90;;;;;;6128276;23;20034;-87
2022/09/25 05:02:11;;;;;;;1.30;0.40;;;9.20;99.90;;;;;;6128402;23;20473;-88
2022/09/25 05:04:37;;;;;;;1.13;0.40;;;9.20;99.90;;;;;;6128339;23;20554;-88
2022/09/25 05:07:03;;;;;;;1.23;0.45;;;9.20;99.90;;;;;;6128496;23;20023;-87
2022/09/25 05:09:30;;;;;;;1.20;0.40;;;9.20;99.90;;;;;;6128697;23;20017;-89
2022/09/25 05:11:56;;;;;;;;;;;9.10;99.90;;;;;;6154461;23;20083;-88
2022/09/25 05:14:22;;;;;;;2.42;0.50;;;9.10;99.90;;;;;;6130741;23;20326;-87
2022/09/25 05:16:48;;;;;;;2.63;0.60;;;9.10;99.90;;;;;;6130902;23;20078;-87
2022/09/25 05:19:14;;;;;;;3.33;0.40;;;9.10;99.90;;;;;;6131877;23;20017;-87
2022/09/25 05:21:41;;;;;;;0.85;0.35;;;9.10;99.90;;;;;;6131885;23;20438;-88
2022/09/25 05:24:07;;;;;;;3.42;0.57;;;9.10;99.90;;;;;;6129567;23;20049;-86
2022/09/25 05:29:09;;;;;;;2.08;0.90;;;9.10;99.90;;;;;;6182172;23;20029;-95
2022/09/25 05:31:35;;;;;;;;;;;9.10;99.90;;;;;;6181491;23;20464;-92
2022/09/25 05:34:01;;;;;;;1.05;0.40;;;9.10;99.90;;;;;;6181076;23;19995;-94
2022/09/25 05:36:27;;;;;;;2.47;0.60;;;9.00;99.90;;;;;;6180632;23;20100;-93
2022/09/25 05:38:54;;;;;;;2.00;0.50;;;9.00;99.90;;;;;;6180172;23;20349;-91
2022/09/25 05:41:58;;;;;;;0.30;0.20;;;9.00;99.90;;;;;;6156547;23;20096;-91
2022/09/25 05:45:01;;;;;;;1.13;0.40;;;9.00;99.90;;;;;;6156600;23;20055;-90
2022/09/25 05:47:27;;;;;;;1.20;0.47;;;9.00;99.90;;;;;;6155782;23;20024;-89
2022/09/25 05:49:52;;;;;;;1.13;0.43;;;9.00;99.90;;;;;;6155381;23;20346;-89
2022/09/25 05:52:18;;;;;;;1.73;0.60;;;9.10;99.90;;;;;;6153664;23;20013;-90
2022/09/25 05:54:44;;;;;;;1.23;0.40;;;9.10;99.90;;;;;;6129121;23;20017;-88
2022/09/25 05:57:19;;;;;;;1.90;0.60;;;9.10;99.90;;;;;;6154613;23;20040;-90
2022/09/25 05:59:44;;;;;;;2.72;0.60;;;9.10;99.90;;;;;;6180513;23;20055;-93
2022/09/25 06:02:11;;;;;;;2.10;0.60;;;9.10;99.90;;;;;;6156234;23;20021;-90
2022/09/25 06:04:37;;;;;;;;;;;9.10;99.90;;;;;;6156487;23;20092;-90
2022/09/25 06:07:03;;;;;;;6.53;0.95;;;9.10;99.90;;;;;;6132967;23;19923;-90
2022/09/25 06:09:47;;;;;;;1.10;0.40;;;9.10;99.90;;;;;;6167663;23;20025;-90
2022/09/25 06:12:13;;;;;;;1.17;0.40;;;9.20;99.90;;;;;;6169553;23;20013;-91
2022/09/25 06:14:39;;;;;;;0.50;0.30;;;9.20;99.90;;;;;;6156855;23;20053;-93
2022/09/25 06:17:06;;;;;;;3.28;0.85;;;9.20;99.90;;;;;;6155866;23;20465;-88
2022/09/25 06:19:34;;;;;;;2.78;0.50;;;9.20;99.90;;;;;;6181975;23;20023;-90
2022/09/25 06:21:59;;;;;;;;;;;9.20;99.90;;;;;;6180901;23;20423;-90
2022/09/25 06:24:25;;;;;;;2.20;0.55;;;9.30;99.90;;;;;;6155926;23;19920;-93
2022/09/25 06:26:51;;;;;;;1.50;0.50;;;9.20;99.90;;;;;;6155891;23;20112;-91
2022/09/25 06:29:17;;;;;;;1.07;0.57;;;9.30;99.90;;;;;;6155809;23;20032;-91
2022/09/25 06:31:42;;;;;;;3.03;0.50;;;9.30;99.90;;;;;;6156084;23;20051;-90
2022/09/25 06:34:10;;;;;;;3.03;0.30;;;9.30;99.90;;;;;;6180883;23;20017;-89
2022/09/25 06:36:36;;;;;;;1.17;0.40;;;9.40;99.90;;;;;;6180415;23;20021;-89
2022/09/25 06:39:02;;;;;;;0.83;0.50;;;9.40;99.90;;;;;;6178684;23;20021;-93
2022/09/25 06:41:29;;;;;;;0.73;0.40;;;9.40;99.90;;;;;;6179525;23;20013;-89
2022/09/25 06:43:55;;;;;;;0.55;0.30;;;9.40;99.90;;;;;;6155776;23;20021;-90
2022/09/25 06:46:21;;;;;;;1.00;0.50;;;9.40;99.90;;;;;;6155715;23;20028;-91
2022/09/25 06:49:05;;;;;;;0.93;0.50;;;9.40;99.90;;;;;;6155606;23;20108;-91
2022/09/25 06:51:33;;;;;;;0.77;0.32;;;9.50;99.90;;;;;;6155550;23;20021;-94
2022/09/25 06:54:14;;;;;;;0.65;0.32;;;9.50;99.90;;;;;;6156285;23;20021;-89
2022/09/25 06:56:40;;;;;;;1.30;0.40;;;9.60;99.90;;;;;;6155435;23;20017;-92
2022/09/25 06:59:07;;;;;;;1.13;0.37;;;9.60;99.90;;;;;;6156246;23;20117;-92
2022/09/25 07:01:32;;;;;;;;;;;9.70;99.90;;;;;;6180848;23;20024;-92
2022/09/25 07:03:58;;;;;;;2.13;0.38;;;9.80;99.90;;;;;;6155962;23;19916;-89
2022/09/25 07:06:30;;;;;;;1.03;0.40;;;9.90;99.90;;;;;;6155509;23;20036;-90
2022/09/25 07:08:56;;;;;;;2.92;0.50;;;9.90;99.90;;;;;;6153974;23;20043;-90
2022/09/25 07:11:24;;;;;;;3.35;0.50;;;10.00;99.90;;;;;;6180545;23;20024;-93
2022/09/25 07:13:53;;;;;;;1.60;0.57;;;10.10;99.90;;;;;;6155934;23;20017;-92
2022/09/25 07:16:21;;;;;;;1.33;0.40;;;10.20;99.90;;;;;;6155673;23;20434;-95
2022/09/25 07:18:47;;;;;;;0.98;0.40;;;10.20;99.90;;;;;;6156080;23;20101;-90
2022/09/25 07:21:15;;;;;;;0.60;0.30;;;10.30;99.90;;;;;;6155916;23;20025;-91
2022/09/25 07:23:42;;;;;;;0.75;0.30;;;10.40;99.90;;;;;;6156156;23;20096;-90
2022/09/25 07:26:26;;;;;;;1.30;0.40;;;10.50;99.90;;;;;;6154347;23;20028;-89
2022/09/25 07:28:54;;;;;;;1.90;0.50;;;10.60;99.90;;;;;;6180514;23;20027;-89
2022/09/25 07:31:22;;;;;;;1.27;0.40;;;10.70;99.90;;;;;;6154757;23;20094;-88
2022/09/25 07:34:11;;;;;;;1.67;0.50;;;10.70;99.90;;;;;;6154436;23;20457;-89
2022/09/25 07:36:38;;;;;;;2.92;0.70;;;10.90;99.90;;;;;;6178504;23;20036;-90
2022/09/25 07:39:05;;;;;;;3.13;0.40;;;11.00;99.90;;;;;;6153982;23;20120;-89
2022/09/25 07:41:31;;;;;;;;;;;11.10;99.90;;;;;;6181887;23;20384;-89
2022/09/25 07:43:58;;;;;;;3.95;0.40;;;11.20;99.90;;;;;;6153654;23;19948;-89
2022/09/25 07:46:25;;;;;;;0.98;0.30;;;11.30;99.90;;;;;;6180259;23;20025;-88
2022/09/25 07:49:13;;;;;;;1.05;0.40;;;11.30;99.90;;;;;;6154982;23;20025;-88
2022/09/25 07:55:23;;;;;;;2.58;0.40;;;11.50;99.90;;;;;;6181668;23;20104;-88
2022/09/25 07:57:49;;;;;;;1.83;0.45;;;11.60;99.90;;;;;;6180542;23;20384;-93
2022/09/25 08:00:16;;;;;;;1.38;0.30;;;11.70;99.90;;;;;;6155516;23;20077;-90
2022/09/25 08:02:42;;;;;;;0.77;0.20;;;11.70;99.90;;;;;;6154945;23;20048;-90
2022/09/25 08:05:08;;;;;;;0.40;0.30;;;11.80;99.90;;;;;;6179272;23;20381;-91
2022/09/25 08:07:58;;;;;;;1.85;0.30;;;11.80;99.90;;;;;;6130978;23;20047;-91
2022/09/25 08:10:24;;;;;;;3.08;0.40;;;11.90;99.90;;;;;;6161837;23;20027;-88
2022/09/25 08:12:51;;;;;;;2.17;0.30;;;12.00;99.90;;;;;;6163374;23;20017;-88
2022/09/25 08:15:35;;;;;;;;;;;12.00;99.90;;;;;;6108209;23;20027;-90
2022/09/25 08:18:01;;;;;;;1.85;0.35;;;12.10;99.90;;;;;;6155390;23;20340;-88
2022/09/25 08:20:27;;;;;;;0.30;0.13;;;12.20;99.90;;;;;;6155317;23;20092;-92
2022/09/25 08:23:01;;;;;;;1.77;0.40;;;12.20;99.90;;;;;;6106126;23;20100;-90
2022/09/25 08:25:53;;;;;;;0.90;0.28;;;12.30;99.90;;;;;;6129998;23;20021;-91
2022/09/25 08:28:22;;;;;;;1.38;0.40;;;12.50;99.90;;;;;;6154472;23;20053;-90
2022/09/25 08:34:54;;;;;;;0.88;0.30;;;12.70;99.90;;;;;;6182005;23;20016;-90
2022/09/25 08:37:25;;;;;;;1.77;0.20;;;12.80;99.90;;;;;;6155250;23;20024;-91
2022/09/25 08:39:54;;;;;;;0.75;0.20;;;12.90;99.90;;;;;;6107690;23;20020;-91
2022/09/25 08:42:39;;;;;;;0.65;0.20;;;12.90;99.90;;;;;;6153590;23;20066;-91
2022/09/25 08:50:52;;;;;;;1.42;0.28;;;13.10;99.90;;;;;;6179405;23;20029;-91
2022/09/25 08:53:37;;;;;;;0.68;0.30;;;13.20;99.90;;;;;;6156081;23;20017;-91
2022/09/25 08:56:56;;;;;;;0.20;0.20;;;13.20;99.90;;;;;;6154692;23;20020;-95
2022/09/25 09:03:17;;;;;;;0.45;0.20;;;13.40;99.90;;;;;;6228531;22;20024;-94
2022/09/25 09:18:45;;;;;;;1.27;0.20;;;13.10;99.90;;;;;;6306871;22;20475;-94
2022/09/25 09:26:43;;;;;;;0.60;0.10;;;13.00;99.90;;;;;;6122214;22;20026;-88
2022/09/25 09:29:18;;;;;;;0.47;0.20;;;12.90;99.90;;;;;;6096173;23;20022;-90
2022/09/25 09:32:01;;;;;;;0.40;0.20;;;12.90;99.90;;;;;;6096130;23;20018;-87
2022/09/25 09:34:30;;;;;;;0.10;0.10;;;12.80;99.90;;;;;;6120574;23;20022;-88
2022/09/25 09:36:59;;;;;;;0.30;0.17;;;12.70;99.90;;;;;;6095842;23;20018;-87
2022/09/25 09:39:45;;;;;;;0.10;0.10;;;12.60;99.90;;;;;;6095789;23;20026;-90
2022/09/25 09:42:31;;;;;;;0.82;0.30;;;12.50;99.90;;;;;;6120351;23;20018;-88
2022/09/25 09:45:31;;;;;;;0.25;0.10;;;12.40;99.90;;;;;;6120212;23;20022;-88
2022/09/25 09:48:23;;;;;;;0.52;0.20;;;12.40;99.90;;;;;;6094648;23;20045;-87
2022/09/25 09:50:53;;;;;;;0.38;0.20;;;12.40;99.90;;;;;;6093103;23;20018;-88
2022/09/25 09:53:26;;;;;;;0.65;0.20;;;12.40;99.90;;;;;;6095452;23;20049;-87
2022/09/25 09:55:57;;;;;;;0.60;0.20;;;12.40;99.90;;;;;;6117767;23;20153;-87
2022/09/25 09:58:50;;;;;;;0.43;0.20;;;12.40;99.90;;;;;;6095059;23;20018;-88
2022/09/25 10:01:20;;;;;;;1.40;0.20;;;12.40;99.90;;;;;;6095644;23;20069;-88
2022/09/25 10:03:49;;;;;;;1.42;0.30;;;12.50;99.90;;;;;;6096978;23;20022;-88
2022/09/25 10:06:27;;;;;;;2.30;0.32;;;12.60;99.90;;;;;;6098362;23;20022;-89
2022/09/25 10:08:53;;;;;;;1.58;0.30;;;12.70;99.90;;;;;;6097803;23;20025;-90
2022/09/25 10:11:20;;;;;;;0.65;0.30;;;12.80;99.90;;;;;;6077076;23;20026;-86
2022/09/25 10:13:45;;;;;;;;;;;12.80;99.90;;;;;;6136017;23;20451;-89
2022/09/25 10:16:23;;;;;;;1.33;0.40;;;13.00;99.90;;;;;;6103186;23;19917;-88
2022/09/25 10:19:03;;;;;;;3.60;0.47;;;13.20;99.90;;;;;;6121568;23;20036;-89
2022/09/25 10:22:07;;;;;;;1.40;0.38;;;13.40;99.90;;;;;;6097065;23;20101;-90
2022/09/25 10:25:00;;;;;;;1.13;0.30;;;13.70;99.90;;;;;;6134633;23;20113;-90
2022/09/25 10:27:30;;;;;;;1.20;0.30;;;13.90;99.90;;;;;;6102291;23;20018;-88
2022/09/25 10:30:19;;;;;;;1.85;0.10;;;14.00;99.90;;;;;;6121014;23;20105;-88
2022/09/25 10:33:02;;;;;;;2.85;0.40;;;14.10;99.90;;;;;;6121805;23;20048;-88
2022/09/25 10:35:37;;;;;;;3.00;0.20;;;14.20;99.90;;;;;;6097165;23;20054;-88
2022/09/25 10:38:03;;;;;;;1.35;0.22;;;14.30;99.90;;;;;;6097434;23;20067;-91
2022/09/25 10:40:36;;;;;;;0.68;0.10;;;14.40;99.90;;;;;;6073225;23;20525;-88
2022/09/25 10:43:05;;;;;;;1.02;0.20;;;14.50;99.90;;;;;;6073390;23;20025;-88
2022/09/25 10:45:33;;;;;;;1.10;0.10;;;14.50;99.90;;;;;;6097156;23;20029;-88
2022/09/25 10:50:44;;;;;;;0.60;0.20;;;14.50;99.90;;;;;;6125782;23;20406;-88
2022/09/25 10:53:30;;;;;;;2.05;0.32;;;14.50;99.90;;;;;;6096895;23;20060;-88
2022/09/25 10:56:13;;;;;;;0.80;0.20;;;14.50;99.90;;;;;;6096979;23;20075;-89
2022/09/25 10:58:55;;;;;;;0.80;0.20;;;14.50;99.90;;;;;;6096888;23;20097;-87
2022/09/25 11:01:34;;;;;;;0.93;0.10;;;14.50;99.90;;;;;;6121506;23;20025;-88
2022/09/25 11:04:03;;;;;;;0.93;0.15;;;14.50;99.90;;;;;;6121226;23;20104;-88
2022/09/25 11:06:33;;;;;;;0.43;0.17;;;14.50;99.90;;;;;;6096972;23;20022;-88
2022/09/25 11:09:34;;;;;;;0.75;0.20;;;14.60;99.90;;;;;;6121044;23;20091;-89
2022/09/25 11:12:11;;;;;;;0.77;0.10;;;14.70;99.90;;;;;;6122964;23;20072;-89
2022/09/25 11:14:40;;;;;;;0.30;0.10;;;14.80;99.90;;;;;;6096794;23;20116;-89
2022/09/25 11:17:27;;;;;;;1.48;0.20;;;14.80;99.90;;;;;;6096917;23;20014;-89
2022/09/25 11:20:28;;;;;;;0.40;0.20;;;15.00;99.90;;;;;;6097080;23;20151;-89
2022/09/25 11:23:23;;;;;;;1.35;0.22;;;15.20;99.90;;;;;;6097146;23;20017;-89
2022/09/25 11:26:06;;;;;;;1.05;0.10;;;15.40;99.90;;;;;;6097276;23;20033;-89
2022/09/25 11:29:24;;;;;;;0.68;0.17;;;15.60;99.90;;;;;;6096790;23;20029;-89
2022/09/25 11:32:18;;;;;;;0.85;0.32;;;15.60;99.90;;;;;;6089371;23;20451;-90
2022/09/25 11:35:02;;;;;;;1.60;0.20;;;15.50;99.90;;;;;;6096885;23;20018;-88
2022/09/25 11:37:55;;;;;;;1.75;0.30;;;15.40;99.90;;;;;;6096845;23;20071;-89
2022/09/25 11:44:00;;;;;;;1.20;0.20;;;15.20;99.90;;;;;;6121596;23;20026;-90
2022/09/25 11:46:55;;;;;;;1.15;0.20;;;15.10;99.90;;;;;;6097442;23;20115;-88
2022/09/25 11:49:33;;;;;;;1.75;0.20;;;15.10;99.90;;;;;;6132573;23;20485;-89
2022/09/25 11:52:21;;;;;;;1.48;0.30;;;15.10;99.90;;;;;;6096684;23;20022;-89
2022/09/25 11:55:15;;;;;;;1.20;0.10;;;15.20;99.90;;;;;;6096629;23;20021;-89
2022/09/25 11:58:13;;;;;;;2.60;0.20;;;15.30;99.90;;;;;;6097048;23;20026;-89
2022/09/25 12:00:59;;;;;;;0.30;0.13;;;15.30;99.90;;;;;;6120950;23;20025;-89
2022/09/25 12:03:58;;;;;;;1.05;0.30;;;15.20;99.90;;;;;;6096695;23;20060;-89
2022/09/25 12:06:37;;;;;;;1.75;0.28;;;15.10;99.90;;;;;;6096940;23;20018;-89
2022/09/25 12:09:37;;;;;;;1.67;0.22;;;15.10;99.90;;;;;;6096446;23;20097;-88
2022/09/25 12:12:40;;;;;;;1.08;0.30;;;15.00;99.90;;;;;;6096828;23;20339;-89
2022/09/25 12:15:26;;;;;;;2.25;0.32;;;14.90;99.90;;;;;;6124119;23;20018;-87
2022/09/25 12:18:13;;;;;;;0.47;0.20;;;14.80;99.90;;;;;;6130718;23;20014;-89
2022/09/25 12:20:56;;;;;;;2.30;0.50;;;14.80;99.90;;;;;;6096492;23;20108;-90
2022/09/25 12:23:42;;;;;;;0.38;0.20;;;14.80;99.90;;;;;;6096810;23;20033;-89
2022/09/25 12:26:31;;;;;;;2.30;0.20;;;14.80;99.90;;;;;;6096715;22;20100;-89
2022/09/25 12:29:16;;;;;;;1.83;0.22;;;14.80;99.90;;;;;;6096641;23;20359;-90
2022/09/25 12:31:53;;;;;;;0.68;0.10;;;14.80;99.90;;;;;;6097144;23;20497;-89
2022/09/25 12:56:04;;;;;;;0.85;0.10;;;15.10;99.90;;;;;;6137664;23;20029;-89
2022/09/25 12:59:07;;;;;;;2.78;0.20;;;15.10;99.90;;;;;;6101491;23;20520;-90
2022/09/25 13:02:07;;;;;;;2.10;0.20;;;15.10;99.90;;;;;;6102503;23;20029;-89
2022/09/25 13:07:56;;;;;;;0.82;0.10;;;15.20;99.90;;;;;;6179988;22;20017;-90
2022/09/25 13:10:37;;;;;;;0.30;0.10;;;15.20;99.90;;;;;;6042647;23;20026;-88
2022/09/25 13:13:18;;;;;;;1.20;0.20;;;15.20;99.90;;;;;;6177324;23;20013;-89
2022/09/25 13:15:55;;;;;;;0.35;0.35;;;15.10;99.90;;;;;;6154912;23;20029;-90
2022/09/25 13:18:24;;;;;;;0.47;0.10;;;15.10;99.90;;;;;;6130700;23;20036;-89
2022/09/25 13:21:11;;;;;;;1.65;0.30;;;15.10;99.90;;;;;;6154993;23;20024;-90
2022/09/25 13:23:40;;;;;;;0.50;0.10;;;15.20;99.90;;;;;;6153354;23;20092;-90
2022/09/25 13:26:18;;;;;;;1.27;0.25;;;15.30;99.90;;;;;;6155248;23;20021;-90
2022/09/25 13:28:57;;;;;;;1.33;0.30;;;15.40;99.90;;;;;;6154932;23;20027;-88
2022/09/25 13:31:33;;;;;;;0.65;0.10;;;15.50;99.90;;;;;;6155020;23;20067;-90
2022/09/25 13:34:26;;;;;;;1.52;0.25;;;15.50;99.90;;;;;;6156222;23;20019;-90
2022/09/25 13:36:55;;;;;;;0.22;0.10;;;15.50;99.90;;;;;;6156031;23;20021;-89
2022/09/25 13:42:13;;;;;;;1.13;0.25;;;15.60;99.90;;;;;;6181092;23;20032;-89
2022/09/25 13:44:42;;;;;;;1.05;0.28;;;15.70;99.90;;;;;;6155801;23;20047;-89
2022/09/25 13:47:54;;;;;;;5.65;3.92;;;15.70;99.90;;;;;;6155221;23;20385;-88
2022/09/25 13:50:27;;;;;;;0.35;0.20;;;15.70;99.90;;;;;;6122884;23;20063;-88
2022/09/25 13:53:21;;;;;;;0.75;0.30;;;15.70;99.90;;;;;;6287039;22;20084;-89
2022/09/25 13:55:50;;;;;;;0.77;0.43;;;15.70;99.90;;;;;;6155283;23;20018;-88
2022/09/25 13:58:48;;;;;;;2.47;0.30;;;15.60;99.90;;;;;;6154274;23;20025;-88
2022/09/25 14:01:33;;;;;;;1.25;0.17;;;15.50;99.90;;;;;;6153526;23;20450;-88
2022/09/25 14:04:12;;;;;;;1.45;0.30;;;15.50;99.90;;;;;;6157532;23;20036;-91
2022/09/25 14:06:46;;;;;;;0.10;0.10;;;15.30;99.90;;;;;;6153719;23;20021;-89
2022/09/25 14:13:27;;;;;;;0.40;0.10;;;15.20;99.90;;;;;;6147779;23;20016;-91
2022/09/25 14:15:56;;;;;;;0.77;0.10;;;15.10;99.90;;;;;;6097419;23;20018;-89
2022/09/25 14:18:38;;;;;;;0.80;0.10;;;15.00;99.90;;;;;;6099383;23;20029;-88
2022/09/25 14:21:06;;;;;;;1.75;0.28;;;15.00;99.90;;;;;;6100921;23;20024;-88
2022/09/25 14:23:50;;;;;;;1.15;0.20;;;14.90;99.90;;;;;;6226955;23;20032;-89
2022/09/25 14:26:23;;;;;;;0.65;0.20;;;15.00;99.90;;;;;;6100532;23;20024;-89
2022/09/25 14:28:50;;;;;;;0.35;0.10;;;15.00;99.90;;;;;;6100569;23;20343;-89
2022/09/25 14:31:28;;;;;;;0.65;0.47;;;15.10;99.90;;;;;;6076476;23;20022;-89
2022/09/25 14:34:31;;;;;;;0.50;0.10;;;15.10;99.90;;;;;;6125147;23;20350;-89
2022/09/25 14:37:00;;;;;;;0.90;0.10;;;15.10;99.90;;;;;;6100761;23;20147;-90
2022/09/25 14:39:46;;;;;;;0.75;0.10;;;15.20;99.90;;;;;;6101118;23;20020;-89
2022/09/25 14:42:35;;;;;;;0.17;0.10;;;15.20;99.90;;;;;;6100801;23;20398;-89
2022/09/25 14:45:25;;;;;;;0.93;0.30;;;15.10;99.90;;;;;;6101118;23;20013;-90
2022/09/25 14:48:18;;;;;;;1.75;0.30;;;15.10;99.90;;;;;;6155009;23;20024;-88
2022/09/25 14:50:48;;;;;;;0.95;0.20;;;15.10;99.90;;;;;;6150567;23;20102;-88
2022/09/25 14:53:30;;;;;;;0.25;0.10;;;15.00;99.90;;;;;;6184707;23;20017;-87
2022/09/25 14:55:57;;;;;;;1.23;0.17;;;15.00;99.90;;;;;;6168882;23;20017;-88
2022/09/25 14:58:26;;;;;;;0.85;0.30;;;15.00;99.90;;;;;;6261639;22;20021;-87
2022/09/25 15:00:55;;;;;;;1.38;0.10;;;15.00;99.90;;;;;;6180214;23;20028;-87